createdAt,value
2017-11-16T00:00:11.864Z,25.65
2017-11-16T00:02:39.423Z,25.50
2017-11-16T00:05:07.023Z,27.42
2017-11-16T00:07:34.580Z,26.67
2017-11-16T00:10:02.910Z,25.40
2017-11-16T00:12:30.522Z,26.92
2017-11-16T00:14:58.085Z,25.98
2017-11-16T00:17:25.677Z,24.35
2017-11-16T00:19:54.035Z,26.67
2017-11-16T00:22:21.584Z,26.65
2017-11-16T00:24:49.178Z,25.65
2017-11-16T00:27:16.780Z,26.25
2017-11-16T00:29:44.371Z,25.42
2017-11-16T00:32:11.975Z,24.23
2017-11-16T00:34:39.534Z,25.42
2017-11-16T00:37:07.093Z,25.35
2017-11-16T00:39:34.677Z,25.00
2017-11-16T00:42:02.239Z,25.55
2017-11-16T00:44:29.832Z,25.73
2017-11-16T00:46:57.387Z,22.15
2017-11-16T00:49:25.743Z,24.25
2017-11-16T00:51:53.300Z,26.17
2017-11-16T00:54:20.890Z,25.62
2017-11-16T00:56:48.444Z,24.70
2017-11-16T00:59:16.818Z,26.80
2017-11-16T01:01:45.167Z,25.08
2017-11-16T01:04:12.766Z,24.90
2017-11-16T01:06:40.340Z,25.90
2017-11-16T01:09:07.951Z,24.40
2017-11-16T01:11:35.506Z,26.70
2017-11-16T01:14:03.063Z,24.90
2017-11-16T01:16:30.694Z,26.35
2017-11-16T01:18:59.032Z,24.05
2017-11-16T01:21:27.401Z,25.27
2017-11-16T01:23:54.964Z,25.70
2017-11-16T01:26:23.294Z,26.00
2017-11-16T01:28:50.898Z,23.73
2017-11-16T01:31:18.458Z,26.50
2017-11-16T01:33:46.060Z,26.15
2017-11-16T01:36:13.619Z,25.05
2017-11-16T01:38:41.256Z,26.05
2017-11-16T01:41:09.595Z,25.95
2017-11-16T01:43:37.208Z,27.23
2017-11-16T01:46:05.546Z,24.92
2017-11-16T01:48:33.119Z,24.25
2017-11-16T01:51:00.751Z,24.83
2017-11-16T01:53:28.318Z,27.27
2017-11-16T01:55:55.878Z,24.77
2017-11-16T01:58:23.473Z,24.23
2017-11-16T02:00:51.826Z,26.35
2017-11-16T02:03:19.426Z,26.25
2017-11-16T02:05:47.832Z,24.92
2017-11-16T02:08:15.399Z,23.95
2017-11-16T02:10:42.996Z,25.15
2017-11-16T02:13:10.603Z,24.05
2017-11-16T02:15:38.163Z,25.10
2017-11-16T02:18:05.771Z,26.17
2017-11-16T02:20:33.369Z,24.33
2017-11-16T02:23:01.695Z,34.90
2017-11-16T02:25:29.339Z,23.50
2017-11-16T02:27:56.914Z,24.00
2017-11-16T02:30:24.486Z,23.62
2017-11-16T02:32:52.108Z,22.52
2017-11-16T02:35:19.719Z,22.55
2017-11-16T02:37:47.310Z,22.90
2017-11-16T02:40:15.678Z,23.55
2017-11-16T02:42:43.237Z,22.85
2017-11-16T02:45:10.840Z,24.73
2017-11-16T02:47:38.414Z,23.73
2017-11-16T02:50:06.010Z,25.35
2017-11-16T02:52:33.615Z,23.75
2017-11-16T02:55:01.178Z,25.27
2017-11-16T02:57:28.734Z,23.00
2017-11-16T02:59:56.353Z,22.40
2017-11-16T03:02:23.919Z,24.27
2017-11-16T03:04:51.476Z,24.70
2017-11-16T03:07:19.069Z,21.45
2017-11-16T03:09:46.636Z,25.85
2017-11-16T03:12:14.231Z,24.55
2017-11-16T03:14:41.827Z,24.75
2017-11-16T03:17:09.391Z,22.95
2017-11-16T03:19:37.768Z,22.23
2017-11-16T03:22:05.339Z,24.42
2017-11-16T03:24:33.711Z,23.58
2017-11-16T03:27:02.103Z,22.80
2017-11-16T03:29:30.451Z,23.12
2017-11-16T03:31:58.021Z,23.45
2017-11-16T03:34:25.613Z,22.90
2017-11-16T03:36:53.183Z,20.80
2017-11-16T03:39:20.809Z,21.58
2017-11-16T03:41:48.363Z,23.87
2017-11-16T03:44:15.959Z,23.40
2017-11-16T03:46:43.517Z,22.48
2017-11-16T03:49:11.071Z,22.13
2017-11-16T03:51:38.686Z,21.30
2017-11-16T03:54:06.295Z,21.85
2017-11-16T03:56:34.676Z,23.30
2017-11-16T03:59:02.243Z,22.67
2017-11-16T04:01:32.714Z,22.62
2017-11-16T04:04:00.312Z,25.15
2017-11-16T04:06:27.886Z,23.12
2017-11-16T04:08:55.455Z,22.27
2017-11-16T04:11:23.072Z,23.92
2017-11-16T04:13:50.639Z,23.48
2017-11-16T04:16:18.191Z,23.27
2017-11-16T04:18:45.790Z,21.58
2017-11-16T04:21:13.407Z,21.37
2017-11-16T04:23:40.972Z,24.50
2017-11-16T04:26:08.534Z,22.55
2017-11-16T04:28:36.127Z,26.45
2017-11-16T04:31:04.450Z,26.08
2017-11-16T04:33:32.063Z,23.00
2017-11-16T04:36:00.391Z,23.73
2017-11-16T04:38:28.145Z,22.85
2017-11-16T04:40:55.750Z,21.87
2017-11-16T04:43:23.420Z,22.85
2017-11-16T04:45:51.757Z,20.00
2017-11-16T04:48:19.363Z,23.23
2017-11-16T04:50:47.693Z,22.48
2017-11-16T04:53:15.260Z,22.05
2017-11-16T04:55:42.866Z,21.48
2017-11-16T04:58:11.200Z,22.00
2017-11-16T05:00:38.820Z,22.13
2017-11-16T05:03:06.386Z,24.25
2017-11-16T05:05:33.951Z,22.50
2017-11-16T05:08:01.570Z,22.27
2017-11-16T05:10:29.149Z,25.25
2017-11-16T05:12:57.478Z,25.27
2017-11-16T05:15:25.071Z,22.20
2017-11-16T05:17:52.633Z,24.63
2017-11-16T05:20:20.206Z,22.85
2017-11-16T05:22:48.583Z,23.55
2017-11-16T05:25:16.913Z,23.98
2017-11-16T05:27:44.514Z,22.80
2017-11-16T05:30:12.075Z,22.42
2017-11-16T05:32:39.637Z,21.92
2017-11-16T05:35:08.027Z,21.48
2017-11-16T05:37:36.353Z,20.52
2017-11-16T05:40:03.947Z,22.10
2017-11-16T05:42:31.515Z,25.27
2017-11-16T05:44:59.114Z,21.27
2017-11-16T05:47:26.668Z,21.25
2017-11-16T05:49:54.225Z,21.55
2017-11-16T05:52:21.825Z,22.02
2017-11-16T05:54:49.385Z,22.90
2017-11-16T05:57:16.987Z,21.55
2017-11-16T05:59:45.322Z,23.20
2017-11-16T06:02:12.876Z,23.27
2017-11-16T06:04:40.459Z,23.20
2017-11-16T06:07:08.023Z,21.08
2017-11-16T06:09:35.628Z,21.73
2017-11-16T06:12:03.195Z,21.10
2017-11-16T06:14:30.813Z,21.62
2017-11-16T06:16:58.370Z,22.83
2017-11-16T06:19:25.976Z,22.37
2017-11-16T06:21:53.591Z,20.98
2017-11-16T06:24:21.158Z,21.80
2017-11-16T06:26:48.715Z,19.90
2017-11-16T06:29:16.322Z,20.05
2017-11-16T06:31:43.873Z,21.90
2017-11-16T06:34:11.470Z,19.37
2017-11-16T06:36:39.055Z,20.67
2017-11-16T06:39:06.670Z,21.62
2017-11-16T06:41:34.247Z,20.98
2017-11-16T06:44:02.868Z,18.02
2017-11-16T06:46:30.422Z,17.95
2017-11-16T06:48:57.981Z,17.40
2017-11-16T06:51:25.589Z,20.50
2017-11-16T06:53:53.146Z,18.08
2017-11-16T06:56:20.751Z,18.40
2017-11-16T06:58:48.350Z,17.83
2017-11-16T07:01:16.738Z,17.15
2017-11-16T07:03:45.092Z,19.12
2017-11-16T07:06:12.692Z,20.20
2017-11-16T07:08:40.295Z,18.42
2017-11-16T07:11:07.871Z,20.02
2017-11-16T07:13:35.551Z,19.27
2017-11-16T07:16:03.899Z,20.75
2017-11-16T07:18:31.488Z,18.58
2017-11-16T07:20:59.119Z,17.65
2017-11-16T07:23:26.719Z,16.55
2017-11-16T07:25:55.052Z,18.20
2017-11-16T07:28:22.668Z,16.95
2017-11-16T07:30:50.996Z,18.35
2017-11-16T07:33:18.584Z,16.80
2017-11-16T07:35:46.231Z,17.35
2017-11-16T07:38:13.807Z,16.05
2017-11-16T07:40:47.948Z,17.23
2017-11-16T07:43:15.517Z,18.92
2017-11-16T07:45:43.143Z,19.40
2017-11-16T07:48:10.713Z,19.75
2017-11-16T07:50:39.933Z,18.05
2017-11-16T07:53:07.927Z,17.33
2017-11-16T07:55:36.341Z,16.85
2017-11-16T07:58:09.875Z,17.08
2017-11-16T08:00:37.956Z,18.35
2017-11-16T08:03:08.298Z,17.37
2017-11-16T08:05:36.824Z,17.33
2017-11-16T08:08:04.461Z,18.15
2017-11-16T08:10:32.421Z,16.65
2017-11-16T08:13:01.105Z,18.75
2017-11-16T08:15:28.679Z,16.92
2017-11-16T08:17:56.296Z,15.00
2017-11-16T08:20:24.898Z,18.25
2017-11-16T08:22:52.449Z,17.02
2017-11-16T08:25:20.051Z,16.40
2017-11-16T08:27:47.618Z,18.55
2017-11-16T08:30:15.234Z,17.50
2017-11-16T08:32:42.808Z,17.75
2017-11-16T08:35:10.423Z,15.80
2017-11-16T08:37:38.069Z,16.62
2017-11-16T08:40:05.674Z,17.55
2017-11-16T08:42:34.164Z,17.85
2017-11-16T08:45:01.805Z,15.02
2017-11-16T08:47:30.123Z,15.80
2017-11-16T08:49:58.452Z,14.55
2017-11-16T08:52:26.830Z,15.95
2017-11-16T08:54:55.260Z,14.23
2017-11-16T08:57:22.822Z,15.80
2017-11-16T08:59:51.187Z,16.10
2017-11-16T09:02:19.072Z,15.00
2017-11-16T09:04:46.812Z,14.82
2017-11-16T09:07:14.478Z,13.05
2017-11-16T09:09:42.232Z,15.38
2017-11-16T09:12:09.825Z,15.15
2017-11-16T09:14:37.383Z,16.00
2017-11-16T09:17:04.993Z,14.82
2017-11-16T09:19:33.395Z,15.45
2017-11-16T09:22:01.346Z,14.43
2017-11-16T09:24:31.079Z,15.50
2017-11-16T09:26:58.789Z,15.40
2017-11-16T09:29:26.595Z,16.17
2017-11-16T09:31:54.688Z,17.42
2017-11-16T09:34:22.359Z,14.02
2017-11-16T09:36:50.078Z,16.87
2017-11-16T09:39:17.823Z,17.50
2017-11-16T09:41:45.509Z,17.05
2017-11-16T09:44:13.897Z,17.20
2017-11-16T09:46:42.398Z,17.00
2017-11-16T09:49:10.125Z,16.45
2017-11-16T09:51:37.776Z,19.83
2017-11-16T09:54:05.421Z,17.10
2017-11-16T09:56:33.029Z,17.55
2017-11-16T09:59:00.813Z,18.45
2017-11-16T10:01:32.069Z,17.33
2017-11-16T10:03:59.848Z,17.25
2017-11-16T10:06:27.749Z,18.30
2017-11-16T10:08:55.459Z,19.65
2017-11-16T10:11:24.224Z,18.25
2017-11-16T10:13:51.902Z,19.23
2017-11-16T10:16:20.509Z,17.98
2017-11-16T10:18:48.239Z,19.50
2017-11-16T10:21:16.792Z,16.40
2017-11-16T10:23:44.582Z,17.50
2017-11-16T10:26:13.501Z,16.42
2017-11-16T10:28:41.184Z,14.48
2017-11-16T10:31:08.864Z,18.52
2017-11-16T10:33:36.539Z,16.17
2017-11-16T10:36:04.557Z,16.35
2017-11-16T10:38:35.852Z,17.90
2017-11-16T10:41:03.898Z,17.50
2017-11-16T10:43:31.649Z,18.33
2017-11-16T10:45:59.626Z,16.45
2017-11-16T10:48:27.378Z,16.85
2017-11-16T10:50:55.274Z,16.77
2017-11-16T10:53:23.761Z,16.00
2017-11-16T10:55:54.360Z,15.70
2017-11-16T10:58:22.309Z,17.67
2017-11-16T11:00:50.657Z,16.40
2017-11-16T11:03:18.263Z,17.65
2017-11-16T11:05:45.961Z,15.13
2017-11-16T11:08:14.382Z,14.73
2017-11-16T11:10:41.950Z,17.37
2017-11-16T11:13:10.351Z,17.98
2017-11-16T11:15:37.911Z,18.85
2017-11-16T11:18:05.554Z,17.73
2017-11-16T11:20:34.710Z,16.27
2017-11-16T11:23:03.461Z,15.35
2017-11-16T11:25:31.081Z,20.40
2017-11-16T11:27:58.644Z,16.10
2017-11-16T11:30:27.465Z,16.50
2017-11-16T11:32:55.827Z,15.05
2017-11-16T11:35:24.186Z,14.70
2017-11-16T11:37:52.602Z,15.07
2017-11-16T11:40:20.203Z,14.43
2017-11-16T11:42:47.828Z,13.80
2017-11-16T11:45:15.392Z,15.43
2017-11-16T11:47:42.973Z,15.40
2017-11-16T11:50:10.622Z,15.95
2017-11-16T11:52:38.220Z,19.60
2017-11-16T11:55:06.970Z,17.55
2017-11-16T11:57:35.335Z,16.05
2017-11-16T12:00:03.069Z,16.27
2017-11-16T12:02:30.745Z,14.68
2017-11-16T12:04:59.116Z,14.90
2017-11-16T12:07:26.732Z,16.58
2017-11-16T12:09:54.292Z,16.23
2017-11-16T12:12:36.576Z,17.35
2017-11-16T12:15:24.733Z,16.37
2017-11-16T12:17:54.406Z,24.10
2017-11-16T12:20:22.104Z,16.00
2017-11-16T12:22:49.683Z,15.20
2017-11-16T12:25:17.298Z,16.30
2017-11-16T12:30:20.432Z,16.35
2017-11-16T12:32:50.152Z,15.23
2017-11-16T12:35:17.961Z,14.87
2017-11-16T12:37:46.332Z,16.50
2017-11-16T12:40:14.286Z,14.80
2017-11-16T12:42:42.875Z,15.68
2017-11-16T12:45:10.509Z,16.05
2017-11-16T12:47:38.758Z,17.27
2017-11-16T12:50:07.083Z,16.67
2017-11-16T12:52:34.732Z,17.40
2017-11-16T12:55:03.063Z,16.35
2017-11-16T12:57:30.967Z,16.37
2017-11-16T12:59:58.777Z,15.10
2017-11-16T13:02:26.403Z,16.02
2017-11-16T13:04:54.812Z,14.07
2017-11-16T13:07:22.362Z,15.40
2017-11-16T13:09:50.344Z,12.52
2017-11-16T13:12:18.618Z,13.95
2017-11-16T13:14:46.236Z,15.05
2017-11-16T13:17:13.829Z,13.65
2017-11-16T13:19:41.407Z,15.65
2017-11-16T13:22:09.073Z,15.18
2017-11-16T13:24:37.613Z,12.25
2017-11-16T13:27:26.138Z,14.23
2017-11-16T13:29:53.798Z,13.57
2017-11-16T13:32:22.140Z,13.38
2017-11-16T13:34:49.767Z,12.80
2017-11-16T13:37:17.474Z,13.32
2017-11-16T13:39:45.044Z,12.23
2017-11-16T13:42:13.435Z,14.30
2017-11-16T13:44:41.007Z,14.57
2017-11-16T13:47:09.359Z,15.18
2017-11-16T13:49:36.983Z,15.18
2017-11-16T13:52:04.566Z,13.68
2017-11-16T13:54:32.219Z,16.80
2017-11-16T13:56:59.775Z,13.45
2017-11-16T13:59:27.353Z,14.32
2017-11-16T14:01:54.960Z,15.65
2017-11-16T14:04:23.368Z,14.40
2017-11-16T14:06:51.011Z,22.25
2017-11-16T14:09:18.571Z,16.83
2017-11-16T14:11:46.131Z,14.98
2017-11-16T14:14:13.754Z,14.70
2017-11-16T14:16:41.332Z,13.82
2017-11-16T14:19:09.663Z,12.43
2017-11-16T14:21:38.074Z,13.52
2017-11-16T14:24:05.632Z,15.02
2017-11-16T14:26:33.395Z,14.63
2017-11-16T14:29:00.995Z,14.40
2017-11-16T14:31:29.050Z,12.13
2017-11-16T14:33:57.431Z,13.13
2017-11-16T14:36:25.786Z,14.93
2017-11-16T14:38:53.628Z,14.45
2017-11-16T14:41:21.308Z,14.15
2017-11-16T14:43:48.887Z,14.40
2017-11-16T14:46:16.484Z,16.80
2017-11-16T14:48:44.048Z,13.90
2017-11-16T14:51:11.671Z,15.77
2017-11-16T14:53:40.130Z,14.90
2017-11-16T14:56:07.752Z,13.90
2017-11-16T14:58:35.328Z,13.55
2017-11-16T15:01:03.042Z,13.98
2017-11-16T15:03:31.410Z,14.98
2017-11-16T15:05:59.818Z,15.27
2017-11-16T15:08:27.403Z,15.15
2017-11-16T15:10:54.992Z,13.93
2017-11-16T15:13:22.578Z,15.32
2017-11-16T15:15:50.225Z,15.93
2017-11-16T15:18:17.827Z,13.85
2017-11-16T15:20:45.523Z,15.95
2017-11-16T15:23:13.722Z,16.02
2017-11-16T15:25:41.358Z,16.45
2017-11-16T15:28:08.946Z,18.27
2017-11-16T15:30:36.553Z,15.75
2017-11-16T15:33:04.181Z,14.82
2017-11-16T15:35:31.772Z,16.42
2017-11-16T15:37:59.354Z,13.50
2017-11-16T15:40:27.008Z,16.15
2017-11-16T15:42:54.629Z,17.58
2017-11-16T15:45:22.208Z,15.75
2017-11-16T15:47:50.716Z,16.85
2017-11-16T15:50:18.626Z,15.10
2017-11-16T15:52:46.409Z,15.35
2017-11-16T15:55:14.800Z,17.33
2017-11-16T15:57:43.208Z,15.27
2017-11-16T16:00:10.772Z,16.33
2017-11-16T16:02:38.324Z,15.20
2017-11-16T16:05:05.916Z,16.48
2017-11-16T16:07:33.575Z,15.75
2017-11-16T16:10:01.260Z,13.40
2017-11-16T16:12:28.862Z,14.73
2017-11-16T16:14:56.603Z,17.17
2017-11-16T16:17:24.337Z,16.65
2017-11-16T16:19:52.300Z,16.33
2017-11-16T16:22:19.972Z,15.88
2017-11-16T16:24:47.673Z,15.20
2017-11-16T16:27:16.056Z,16.83
2017-11-16T16:29:43.663Z,15.32
2017-11-16T16:32:12.431Z,15.73
2017-11-16T16:34:40.056Z,15.48
2017-11-16T16:37:07.656Z,15.68
2017-11-16T16:39:35.281Z,16.25
2017-11-16T16:42:03.758Z,16.95
2017-11-16T16:44:31.357Z,14.75
2017-11-16T16:46:58.914Z,13.50
2017-11-16T16:49:26.527Z,17.90
2017-11-16T16:51:54.163Z,14.93
2017-11-16T16:54:21.760Z,13.98
2017-11-16T16:56:49.464Z,18.50
2017-11-16T16:59:18.859Z,14.90
2017-11-16T17:01:47.810Z,16.35
2017-11-16T17:04:15.380Z,15.70
2017-11-16T17:06:42.940Z,16.62
2017-11-16T17:09:10.534Z,16.50
2017-11-16T17:11:39.838Z,17.52
2017-11-16T17:14:09.006Z,16.10
2017-11-16T17:16:39.903Z,15.38
2017-11-16T17:19:11.357Z,15.32
2017-11-16T17:21:44.202Z,15.10
2017-11-16T17:24:14.806Z,15.40
2017-11-16T17:26:57.984Z,15.85
2017-11-16T17:32:56.313Z,18.95
2017-11-16T17:35:27.199Z,19.00
2017-11-16T17:37:56.972Z,18.17
2017-11-16T17:40:27.196Z,17.80
2017-11-16T17:42:57.552Z,16.90
2017-11-16T17:45:27.388Z,15.02
2017-11-16T17:47:57.171Z,16.40
2017-11-16T17:50:27.634Z,14.40
2017-11-16T17:52:57.471Z,14.40
2017-11-16T17:55:27.135Z,14.80
2017-11-16T17:57:57.827Z,16.17
2017-11-16T18:00:28.228Z,17.08
2017-11-16T18:02:58.055Z,17.75
2017-11-16T18:05:27.890Z,16.25
2017-11-16T18:07:58.545Z,15.63
2017-11-16T18:10:29.160Z,17.12
2017-11-16T18:12:59.902Z,15.57
2017-11-16T18:15:30.644Z,16.17
2017-11-16T18:18:02.591Z,17.62
2017-11-16T18:20:34.042Z,16.23
2017-11-16T18:23:03.766Z,16.75
2017-11-16T18:25:35.202Z,17.25
2017-11-16T18:28:05.036Z,17.00
2017-11-16T18:30:36.477Z,17.02
2017-11-16T18:33:06.108Z,18.60
2017-11-16T18:35:43.813Z,16.12
2017-11-16T18:38:13.858Z,14.77
2017-11-16T18:40:43.458Z,17.42
2017-11-16T18:43:13.147Z,15.70
2017-11-16T18:45:43.781Z,18.30
2017-11-16T18:48:15.108Z,17.55
2017-11-16T18:50:45.462Z,17.65
2017-11-16T18:53:18.095Z,15.93
2017-11-16T18:55:47.840Z,18.08
2017-11-16T18:58:18.431Z,17.87
2017-11-16T19:00:48.155Z,18.73
2017-11-16T19:03:18.919Z,16.35
2017-11-16T19:05:50.150Z,14.52
2017-11-16T19:08:21.076Z,17.85
2017-11-16T19:10:51.030Z,17.30
2017-11-16T19:13:20.289Z,15.57
2017-11-16T19:15:49.895Z,16.92
2017-11-16T19:18:20.449Z,17.50
2017-11-16T19:20:51.077Z,16.77
2017-11-16T19:23:22.136Z,17.45
2017-11-16T19:25:54.601Z,16.60
2017-11-16T19:28:25.037Z,15.93
2017-11-16T19:30:55.075Z,16.80
2017-11-16T19:33:24.637Z,15.90
2017-11-16T19:36:02.430Z,18.35
2017-11-16T19:38:31.027Z,16.87
2017-11-16T19:41:02.454Z,16.60
2017-11-16T19:43:33.042Z,18.25
2017-11-16T19:46:02.391Z,16.98
2017-11-16T19:48:30.675Z,17.40
2017-11-16T19:50:58.980Z,18.35
2017-11-16T19:53:28.101Z,20.30
2017-11-16T19:55:56.895Z,17.90
2017-11-16T19:58:25.306Z,17.40
2017-11-16T20:00:53.535Z,18.00
2017-11-16T20:03:21.852Z,19.02
2017-11-16T20:05:51.745Z,20.15
2017-11-16T20:08:21.784Z,20.45
2017-11-16T20:10:51.394Z,21.83
2017-11-16T20:13:21.642Z,20.10
2017-11-16T20:15:51.488Z,20.30
2017-11-16T20:18:21.127Z,19.95
2017-11-16T20:20:51.482Z,20.30
2017-11-16T20:23:20.960Z,20.85
2017-11-16T20:25:52.167Z,19.30
2017-11-16T20:28:22.472Z,21.35
2017-11-16T20:30:52.186Z,20.30
2017-11-16T20:33:30.467Z,21.08
2017-11-16T20:36:00.243Z,20.20
2017-11-16T20:38:34.599Z,20.50
2017-11-16T20:41:08.923Z,20.00
2017-11-16T20:43:52.782Z,22.13
2017-11-16T20:46:41.590Z,20.10
2017-11-16T20:49:11.777Z,18.73
2017-11-16T20:51:48.047Z,19.83
2017-11-16T20:54:31.304Z,20.17
2017-11-16T20:57:00.565Z,19.52
2017-11-16T20:59:30.341Z,21.25
2017-11-16T21:01:59.990Z,21.65
2017-11-16T21:04:30.457Z,22.08
2017-11-16T21:06:58.459Z,22.52
2017-11-16T21:09:27.057Z,19.80
2017-11-16T21:11:56.290Z,22.23
2017-11-16T21:14:24.811Z,21.75
2017-11-16T21:16:54.310Z,19.15
2017-11-16T21:19:23.538Z,21.45
2017-11-16T21:21:52.972Z,20.50
2017-11-16T21:24:22.649Z,22.95
2017-11-16T21:26:51.983Z,21.73
2017-11-16T21:29:21.659Z,21.35
2017-11-16T21:31:51.284Z,21.17
2017-11-16T21:34:20.706Z,19.95
2017-11-16T21:36:50.826Z,21.58
2017-11-16T21:39:19.150Z,21.87
2017-11-16T21:41:47.256Z,22.05
2017-11-16T21:44:14.873Z,22.08
2017-11-16T21:46:43.285Z,21.35
2017-11-16T21:49:10.835Z,22.50
2017-11-16T21:51:38.468Z,23.15
2017-11-16T21:54:06.074Z,21.73
2017-11-16T21:56:33.631Z,23.50
2017-11-16T21:59:01.189Z,23.35
2017-11-16T22:01:28.797Z,24.60
2017-11-16T22:03:56.356Z,25.55
2017-11-16T22:06:23.950Z,22.85
2017-11-16T22:08:51.543Z,22.90
2017-11-16T22:11:19.119Z,23.95
2017-11-16T22:13:47.499Z,26.37
2017-11-16T22:16:15.835Z,24.45
2017-11-16T22:18:43.395Z,24.67
2017-11-16T22:21:11.014Z,22.75
2017-11-16T22:23:38.619Z,25.92
2017-11-16T22:26:06.186Z,24.80
2017-11-16T22:28:33.747Z,25.25
2017-11-16T22:31:01.354Z,25.95
2017-11-16T22:33:29.670Z,23.95
2017-11-16T22:35:57.227Z,25.80
2017-11-16T22:38:24.848Z,24.45
2017-11-16T22:40:53.202Z,24.05
2017-11-16T22:43:20.798Z,27.17
2017-11-16T22:45:48.398Z,24.30
2017-11-16T22:48:15.958Z,23.50
2017-11-16T22:50:44.324Z,23.95
2017-11-16T22:53:11.930Z,23.87
2017-11-16T22:55:39.487Z,26.00
2017-11-16T22:58:07.101Z,26.02
2017-11-16T23:00:34.689Z,25.45
2017-11-16T23:03:02.253Z,25.60
2017-11-16T23:05:29.887Z,24.23
2017-11-16T23:07:57.507Z,22.87
2017-11-16T23:10:25.145Z,24.60
2017-11-16T23:12:52.736Z,26.00
2017-11-16T23:15:21.057Z,26.08
2017-11-16T23:17:48.639Z,25.05
2017-11-16T23:20:16.195Z,26.40
2017-11-16T23:22:43.809Z,25.20
2017-11-16T23:25:11.368Z,25.30
2017-11-16T23:27:39.729Z,25.17
2017-11-16T23:30:07.315Z,22.87
2017-11-16T23:32:34.866Z,24.12
2017-11-16T23:35:03.241Z,26.10
2017-11-16T23:37:31.590Z,27.37
2017-11-16T23:39:59.195Z,25.20
2017-11-16T23:42:26.752Z,26.35
2017-11-16T23:44:54.362Z,23.23
2017-11-16T23:47:21.930Z,23.92
2017-11-16T23:49:49.535Z,22.85
2017-11-16T23:52:17.147Z,24.05
2017-11-16T23:54:44.719Z,26.15
2017-11-16T23:57:12.332Z,26.67
2017-11-16T23:59:39.907Z,25.00
